sensor_id;sensor_type;location;lat;lon;timestamp;P1;durP1;ratioP1;P2;durP2;ratioP2
73693;SDS011;61997;53.974;11.670;2022-08-21T00:01:41;2.88;;;1.60;;
73693;SDS011;61997;53.974;11.670;2022-08-21T00:04:07;2.30;;;1.80;;
73693;SDS011;61997;53.974;11.670;2022-08-21T00:06:32;5.72;;;2.08;;
73693;SDS011;61997;53.974;11.670;2022-08-21T00:08:58;2.15;;;1.63;;
73693;SDS011;61997;53.974;11.670;2022-08-21T00:11:24;2.92;;;1.77;;
73693;SDS011;61997;53.974;11.670;2022-08-21T00:13:51;2.42;;;1.65;;
73693;SDS011;61997;53.974;11.670;2022-08-21T00:16:17;2.85;;;1.77;;
73693;SDS011;61997;53.974;11.670;2022-08-21T00:18:42;2.70;;;1.50;;
73693;SDS011;61997;53.974;11.670;2022-08-21T00:21:08;2.90;;;1.55;;
73693;SDS011;61997;53.974;11.670;2022-08-21T00:23:35;2.45;;;1.40;;
73693;SDS011;61997;53.974;11.670;2022-08-21T00:26:01;1.83;;;1.40;;
73693;SDS011;61997;53.974;11.670;2022-08-21T00:28:26;2.75;;;1.42;;
73693;SDS011;61997;53.974;11.670;2022-08-21T00:30:52;4.10;;;1.60;;
73693;SDS011;61997;53.974;11.670;2022-08-21T00:33:17;2.17;;;1.40;;
73693;SDS011;61997;53.974;11.670;2022-08-21T00:35:42;2.38;;;1.60;;
73693;SDS011;61997;53.974;11.670;2022-08-21T00:38:08;2.22;;;1.30;;
73693;SDS011;61997;53.974;11.670;2022-08-21T00:40:36;2.63;;;1.60;;
73693;SDS011;61997;53.974;11.670;2022-08-21T00:43:11;3.05;;;1.38;;
73693;SDS011;61997;53.974;11.670;2022-08-21T00:45:37;2.47;;;1.42;;
73693;SDS011;61997;53.974;11.670;2022-08-21T00:48:03;2.28;;;1.55;;
73693;SDS011;61997;53.974;11.670;2022-08-21T00:50:30;2.45;;;1.23;;
73693;SDS011;61997;53.974;11.670;2022-08-21T00:52:57;2.38;;;1.40;;
73693;SDS011;61997;53.974;11.670;2022-08-21T00:55:23;3.20;;;1.85;;
73693;SDS011;61997;53.974;11.670;2022-08-21T00:57:54;4.07;;;1.23;;
73693;SDS011;61997;53.974;11.670;2022-08-21T01:00:23;2.03;;;1.20;;
73693;SDS011;61997;53.974;11.670;2022-08-21T01:02:51;2.65;;;1.60;;
73693;SDS011;61997;53.974;11.670;2022-08-21T01:05:17;3.03;;;1.40;;
73693;SDS011;61997;53.974;11.670;2022-08-21T01:07:42;2.45;;;1.20;;
73693;SDS011;61997;53.974;11.670;2022-08-21T01:10:09;1.73;;;1.13;;
73693;SDS011;61997;53.974;11.670;2022-08-21T01:12:36;2.40;;;1.33;;
73693;SDS011;61997;53.974;11.670;2022-08-21T01:15:02;4.20;;;1.92;;
73693;SDS011;61997;53.974;11.670;2022-08-21T01:17:29;3.75;;;1.42;;
73693;SDS011;61997;53.974;11.670;2022-08-21T01:19:59;2.90;;;1.40;;
73693;SDS011;61997;53.974;11.670;2022-08-21T01:22:25;2.17;;;1.27;;
73693;SDS011;61997;53.974;11.670;2022-08-21T01:24:51;2.25;;;1.45;;
73693;SDS011;61997;53.974;11.670;2022-08-21T01:27:16;2.28;;;1.48;;
73693;SDS011;61997;53.974;11.670;2022-08-21T01:29:46;2.55;;;1.30;;
73693;SDS011;61997;53.974;11.670;2022-08-21T01:32:18;2.15;;;1.58;;
73693;SDS011;61997;53.974;11.670;2022-08-21T01:34:44;3.03;;;1.25;;
73693;SDS011;61997;53.974;11.670;2022-08-21T01:37:12;2.78;;;1.25;;
73693;SDS011;61997;53.974;11.670;2022-08-21T01:39:38;2.60;;;1.30;;
73693;SDS011;61997;53.974;11.670;2022-08-21T01:42:04;2.03;;;1.40;;
73693;SDS011;61997;53.974;11.670;2022-08-21T01:44:29;2.28;;;1.50;;
73693;SDS011;61997;53.974;11.670;2022-08-21T01:46:56;2.15;;;1.17;;
73693;SDS011;61997;53.974;11.670;2022-08-21T01:49:23;2.15;;;1.42;;
73693;SDS011;61997;53.974;11.670;2022-08-21T01:51:48;2.72;;;1.40;;
73693;SDS011;61997;53.974;11.670;2022-08-21T01:54:14;3.15;;;1.50;;
73693;SDS011;61997;53.974;11.670;2022-08-21T01:56:40;2.65;;;1.38;;
73693;SDS011;61997;53.974;11.670;2022-08-21T02:01:33;1.80;;;1.20;;
73693;SDS011;61997;53.974;11.670;2022-08-21T02:03:59;2.80;;;1.30;;
73693;SDS011;61997;53.974;11.670;2022-08-21T02:06:24;2.35;;;1.23;;
73693;SDS011;61997;53.974;11.670;2022-08-21T02:08:50;2.20;;;1.20;;
73693;SDS011;61997;53.974;11.670;2022-08-21T02:11:16;1.65;;;1.13;;
73693;SDS011;61997;53.974;11.670;2022-08-21T02:13:41;1.88;;;1.10;;
73693;SDS011;61997;53.974;11.670;2022-08-21T02:16:07;2.45;;;1.20;;
73693;SDS011;61997;53.974;11.670;2022-08-21T02:18:33;2.75;;;1.30;;
73693;SDS011;61997;53.974;11.670;2022-08-21T02:20:59;1.92;;;1.20;;
73693;SDS011;61997;53.974;11.670;2022-08-21T02:23:24;2.45;;;1.67;;
73693;SDS011;61997;53.974;11.670;2022-08-21T02:25:50;3.22;;;1.38;;
73693;SDS011;61997;53.974;11.670;2022-08-21T02:28:15;3.60;;;1.20;;
73693;SDS011;61997;53.974;11.670;2022-08-21T02:30:42;2.60;;;1.35;;
73693;SDS011;61997;53.974;11.670;2022-08-21T02:33:10;2.38;;;1.15;;
73693;SDS011;61997;53.974;11.670;2022-08-21T02:35:37;2.40;;;1.30;;
73693;SDS011;61997;53.974;11.670;2022-08-21T02:38:05;2.28;;;1.40;;
73693;SDS011;61997;53.974;11.670;2022-08-21T02:40:33;1.98;;;1.17;;
73693;SDS011;61997;53.974;11.670;2022-08-21T02:43:01;2.17;;;1.38;;
73693;SDS011;61997;53.974;11.670;2022-08-21T02:45:28;2.20;;;1.23;;
73693;SDS011;61997;53.974;11.670;2022-08-21T02:47:55;1.98;;;1.20;;
73693;SDS011;61997;53.974;11.670;2022-08-21T02:50:25;2.35;;;1.20;;
73693;SDS011;61997;53.974;11.670;2022-08-21T02:52:55;2.42;;;1.20;;
73693;SDS011;61997;53.974;11.670;2022-08-21T02:55:22;3.47;;;1.10;;
73693;SDS011;61997;53.974;11.670;2022-08-21T02:57:51;2.53;;;1.30;;
73693;SDS011;61997;53.974;11.670;2022-08-21T03:00:18;3.00;;;1.50;;
73693;SDS011;61997;53.974;11.670;2022-08-21T03:02:45;2.47;;;1.27;;
73693;SDS011;61997;53.974;11.670;2022-08-21T03:05:12;3.13;;;1.40;;
73693;SDS011;61997;53.974;11.670;2022-08-21T03:10:05;2.38;;;1.40;;
73693;SDS011;61997;53.974;11.670;2022-08-21T03:12:31;2.15;;;1.10;;
73693;SDS011;61997;53.974;11.670;2022-08-21T03:14:57;2.72;;;1.40;;
73693;SDS011;61997;53.974;11.670;2022-08-21T03:17:23;1.80;;;1.33;;
73693;SDS011;61997;53.974;11.670;2022-08-21T03:19:49;1.70;;;1.30;;
73693;SDS011;61997;53.974;11.670;2022-08-21T03:22:15;3.03;;;1.35;;
73693;SDS011;61997;53.974;11.670;2022-08-21T03:24:42;2.65;;;1.55;;
73693;SDS011;61997;53.974;11.670;2022-08-21T03:27:08;2.70;;;1.40;;
73693;SDS011;61997;53.974;11.670;2022-08-21T03:29:33;1.98;;;1.38;;
73693;SDS011;61997;53.974;11.670;2022-08-21T03:31:58;1.50;;;1.30;;
73693;SDS011;61997;53.974;11.670;2022-08-21T03:34:24;1.65;;;1.38;;
73693;SDS011;61997;53.974;11.670;2022-08-21T03:36:49;2.25;;;1.15;;
73693;SDS011;61997;53.974;11.670;2022-08-21T03:39:16;2.30;;;1.30;;
73693;SDS011;61997;53.974;11.670;2022-08-21T03:41:42;2.50;;;1.50;;
73693;SDS011;61997;53.974;11.670;2022-08-21T03:44:07;2.40;;;1.52;;
73693;SDS011;61997;53.974;11.670;2022-08-21T03:46:32;1.67;;;1.10;;
73693;SDS011;61997;53.974;11.670;2022-08-21T03:48:58;2.13;;;1.40;;
73693;SDS011;61997;53.974;11.670;2022-08-21T03:51:23;2.67;;;1.42;;
73693;SDS011;61997;53.974;11.670;2022-08-21T03:53:49;2.67;;;1.30;;
73693;SDS011;61997;53.974;11.670;2022-08-21T03:56:14;3.63;;;1.30;;
73693;SDS011;61997;53.974;11.670;2022-08-21T03:58:41;2.45;;;1.67;;
73693;SDS011;61997;53.974;11.670;2022-08-21T04:01:07;4.55;;;1.92;;
73693;SDS011;61997;53.974;11.670;2022-08-21T04:03:33;2.88;;;1.40;;
73693;SDS011;61997;53.974;11.670;2022-08-21T04:06:00;3.03;;;1.55;;
73693;SDS011;61997;53.974;11.670;2022-08-21T04:08:26;3.08;;;1.67;;
73693;SDS011;61997;53.974;11.670;2022-08-21T04:10:52;1.77;;;1.38;;
73693;SDS011;61997;53.974;11.670;2022-08-21T04:13:19;2.85;;;1.63;;
73693;SDS011;61997;53.974;11.670;2022-08-21T04:15:45;2.60;;;1.45;;
73693;SDS011;61997;53.974;11.670;2022-08-21T04:18:10;3.00;;;1.60;;
73693;SDS011;61997;53.974;11.670;2022-08-21T04:20:36;3.00;;;1.52;;
73693;SDS011;61997;53.974;11.670;2022-08-21T04:23:02;3.40;;;1.77;;
73693;SDS011;61997;53.974;11.670;2022-08-21T04:25:28;3.38;;;1.83;;
73693;SDS011;61997;53.974;11.670;2022-08-21T04:27:54;4.05;;;2.08;;
73693;SDS011;61997;53.974;11.670;2022-08-21T04:30:19;2.78;;;1.83;;
73693;SDS011;61997;53.974;11.670;2022-08-21T04:32:46;3.08;;;1.80;;
73693;SDS011;61997;53.974;11.670;2022-08-21T04:35:13;3.15;;;1.83;;
73693;SDS011;61997;53.974;11.670;2022-08-21T04:37:39;2.70;;;1.60;;
73693;SDS011;61997;53.974;11.670;2022-08-21T04:40:05;2.85;;;1.90;;
73693;SDS011;61997;53.974;11.670;2022-08-21T04:42:39;6.43;;;1.92;;
73693;SDS011;61997;53.974;11.670;2022-08-21T04:45:15;3.08;;;1.75;;
73693;SDS011;61997;53.974;11.670;2022-08-21T04:47:45;2.42;;;1.73;;
73693;SDS011;61997;53.974;11.670;2022-08-21T04:50:12;2.90;;;1.67;;
73693;SDS011;61997;53.974;11.670;2022-08-21T04:52:37;2.45;;;1.50;;
73693;SDS011;61997;53.974;11.670;2022-08-21T04:55:02;3.08;;;1.60;;
73693;SDS011;61997;53.974;11.670;2022-08-21T04:57:28;3.25;;;1.60;;
73693;SDS011;61997;53.974;11.670;2022-08-21T04:59:53;3.75;;;1.50;;
73693;SDS011;61997;53.974;11.670;2022-08-21T05:02:19;3.35;;;1.60;;
73693;SDS011;61997;53.974;11.670;2022-08-21T05:04:51;2.63;;;1.58;;
73693;SDS011;61997;53.974;11.670;2022-08-21T05:07:20;2.70;;;1.40;;
73693;SDS011;61997;53.974;11.670;2022-08-21T05:09:48;2.83;;;1.55;;
73693;SDS011;61997;53.974;11.670;2022-08-21T05:12:13;2.58;;;1.85;;
73693;SDS011;61997;53.974;11.670;2022-08-21T05:14:39;2.95;;;1.52;;
73693;SDS011;61997;53.974;11.670;2022-08-21T05:17:04;3.30;;;1.45;;
73693;SDS011;61997;53.974;11.670;2022-08-21T05:19:30;2.92;;;1.77;;
73693;SDS011;61997;53.974;11.670;2022-08-21T05:21:55;2.30;;;1.60;;
73693;SDS011;61997;53.974;11.670;2022-08-21T05:24:22;2.70;;;1.42;;
73693;SDS011;61997;53.974;11.670;2022-08-21T05:26:47;1.85;;;1.63;;
73693;SDS011;61997;53.974;11.670;2022-08-21T05:29:16;1.90;;;1.33;;
73693;SDS011;61997;53.974;11.670;2022-08-21T05:31:43;1.90;;;1.58;;
73693;SDS011;61997;53.974;11.670;2022-08-21T05:34:09;2.08;;;1.40;;
73693;SDS011;61997;53.974;11.670;2022-08-21T05:36:34;2.83;;;1.80;;
73693;SDS011;61997;53.974;11.670;2022-08-21T05:38:59;2.60;;;1.30;;
73693;SDS011;61997;53.974;11.670;2022-08-21T05:41:25;2.13;;;1.30;;
73693;SDS011;61997;53.974;11.670;2022-08-21T05:43:50;3.72;;;1.70;;
73693;SDS011;61997;53.974;11.670;2022-08-21T05:46:16;2.50;;;1.42;;
73693;SDS011;61997;53.974;11.670;2022-08-21T05:48:41;3.80;;;1.60;;
73693;SDS011;61997;53.974;11.670;2022-08-21T05:51:08;2.05;;;1.42;;
73693;SDS011;61997;53.974;11.670;2022-08-21T05:56:00;2.78;;;1.33;;
73693;SDS011;61997;53.974;11.670;2022-08-21T05:58:28;3.47;;;1.52;;
73693;SDS011;61997;53.974;11.670;2022-08-21T06:00:54;2.88;;;1.67;;
73693;SDS011;61997;53.974;11.670;2022-08-21T06:03:25;3.55;;;1.65;;
73693;SDS011;61997;53.974;11.670;2022-08-21T06:05:53;3.38;;;1.60;;
73693;SDS011;61997;53.974;11.670;2022-08-21T06:08:19;2.10;;;1.40;;
73693;SDS011;61997;53.974;11.670;2022-08-21T06:10:45;1.67;;;1.23;;
73693;SDS011;61997;53.974;11.670;2022-08-21T06:13:12;2.65;;;1.40;;
73693;SDS011;61997;53.974;11.670;2022-08-21T06:15:38;2.72;;;1.45;;
73693;SDS011;61997;53.974;11.670;2022-08-21T06:18:04;2.38;;;1.40;;
73693;SDS011;61997;53.974;11.670;2022-08-21T06:20:29;3.90;;;1.63;;
73693;SDS011;61997;53.974;11.670;2022-08-21T06:22:56;3.45;;;1.60;;
73693;SDS011;61997;53.974;11.670;2022-08-21T06:25:21;2.22;;;1.40;;
73693;SDS011;61997;53.974;11.670;2022-08-21T06:27:47;4.10;;;1.48;;
73693;SDS011;61997;53.974;11.670;2022-08-21T06:30:12;2.72;;;1.45;;
73693;SDS011;61997;53.974;11.670;2022-08-21T06:32:38;2.55;;;1.33;;
73693;SDS011;61997;53.974;11.670;2022-08-21T06:35:03;2.63;;;1.40;;
73693;SDS011;61997;53.974;11.670;2022-08-21T06:37:29;2.58;;;1.30;;
73693;SDS011;61997;53.974;11.670;2022-08-21T06:39:55;3.83;;;1.45;;
73693;SDS011;61997;53.974;11.670;2022-08-21T06:42:20;2.65;;;1.50;;
73693;SDS011;61997;53.974;11.670;2022-08-21T06:44:46;2.40;;;1.40;;
73693;SDS011;61997;53.974;11.670;2022-08-21T06:47:12;2.25;;;1.33;;
73693;SDS011;61997;53.974;11.670;2022-08-21T06:49:38;2.90;;;1.40;;
73693;SDS011;61997;53.974;11.670;2022-08-21T06:52:03;2.35;;;1.30;;
73693;SDS011;61997;53.974;11.670;2022-08-21T06:54:33;2.55;;;1.60;;
73693;SDS011;61997;53.974;11.670;2022-08-21T06:56:59;3.58;;;1.60;;
73693;SDS011;61997;53.974;11.670;2022-08-21T06:59:24;1.63;;;1.35;;
73693;SDS011;61997;53.974;11.670;2022-08-21T07:01:50;2.38;;;1.40;;
73693;SDS011;61997;53.974;11.670;2022-08-21T07:04:15;3.25;;;1.60;;
73693;SDS011;61997;53.974;11.670;2022-08-21T07:06:41;2.33;;;1.50;;
73693;SDS011;61997;53.974;11.670;2022-08-21T07:09:06;3.40;;;1.60;;
73693;SDS011;61997;53.974;11.670;2022-08-21T07:11:32;2.58;;;1.50;;
73693;SDS011;61997;53.974;11.670;2022-08-21T07:13:57;4.10;;;1.48;;
73693;SDS011;61997;53.974;11.670;2022-08-21T07:16:23;3.33;;;1.40;;
73693;SDS011;61997;53.974;11.670;2022-08-21T07:18:49;4.63;;;1.60;;
73693;SDS011;61997;53.974;11.670;2022-08-21T07:21:14;2.35;;;1.30;;
73693;SDS011;61997;53.974;11.670;2022-08-21T07:23:45;2.95;;;1.58;;
73693;SDS011;61997;53.974;11.670;2022-08-21T07:26:13;2.78;;;1.38;;
73693;SDS011;61997;53.974;11.670;2022-08-21T07:28:39;2.53;;;1.30;;
73693;SDS011;61997;53.974;11.670;2022-08-21T07:31:04;2.53;;;1.50;;
73693;SDS011;61997;53.974;11.670;2022-08-21T07:33:30;3.38;;;1.45;;
73693;SDS011;61997;53.974;11.670;2022-08-21T07:35:57;3.60;;;1.73;;
73693;SDS011;61997;53.974;11.670;2022-08-21T07:38:24;1.80;;;1.40;;
73693;SDS011;61997;53.974;11.670;2022-08-21T07:40:50;2.30;;;1.40;;
73693;SDS011;61997;53.974;11.670;2022-08-21T07:43:18;2.80;;;1.45;;
73693;SDS011;61997;53.974;11.670;2022-08-21T07:45:43;2.97;;;1.70;;
73693;SDS011;61997;53.974;11.670;2022-08-21T07:48:09;2.83;;;1.30;;
73693;SDS011;61997;53.974;11.670;2022-08-21T07:50:35;1.77;;;1.27;;
73693;SDS011;61997;53.974;11.670;2022-08-21T07:53:00;2.65;;;1.73;;
73693;SDS011;61997;53.974;11.670;2022-08-21T07:55:26;3.83;;;1.55;;
73693;SDS011;61997;53.974;11.670;2022-08-21T07:57:51;3.05;;;1.50;;
73693;SDS011;61997;53.974;11.670;2022-08-21T08:00:18;2.30;;;1.60;;
73693;SDS011;61997;53.974;11.670;2022-08-21T08:02:46;2.45;;;1.65;;
73693;SDS011;61997;53.974;11.670;2022-08-21T08:05:15;2.75;;;1.13;;
73693;SDS011;61997;53.974;11.670;2022-08-21T08:07:41;2.63;;;1.50;;
73693;SDS011;61997;53.974;11.670;2022-08-21T08:10:07;2.20;;;1.65;;
73693;SDS011;61997;53.974;11.670;2022-08-21T08:12:34;3.80;;;1.70;;
73693;SDS011;61997;53.974;11.670;2022-08-21T08:15:03;2.38;;;1.40;;
73693;SDS011;61997;53.974;11.670;2022-08-21T08:17:30;2.55;;;1.65;;
73693;SDS011;61997;53.974;11.670;2022-08-21T08:19:57;2.05;;;1.40;;
73693;SDS011;61997;53.974;11.670;2022-08-21T08:22:23;2.55;;;1.40;;
73693;SDS011;61997;53.974;11.670;2022-08-21T08:24:49;2.55;;;1.35;;
73693;SDS011;61997;53.974;11.670;2022-08-21T08:27:16;1.77;;;1.50;;
73693;SDS011;61997;53.974;11.670;2022-08-21T08:29:42;3.20;;;1.75;;
73693;SDS011;61997;53.974;11.670;2022-08-21T08:32:08;2.75;;;1.60;;
73693;SDS011;61997;53.974;11.670;2022-08-21T08:34:34;2.58;;;1.45;;
73693;SDS011;61997;53.974;11.670;2022-08-21T08:36:59;2.53;;;1.50;;
73693;SDS011;61997;53.974;11.670;2022-08-21T08:39:25;2.08;;;1.30;;
73693;SDS011;61997;53.974;11.670;2022-08-21T08:41:56;2.60;;;1.42;;
73693;SDS011;61997;53.974;11.670;2022-08-21T08:44:44;2.20;;;1.48;;
73693;SDS011;61997;53.974;11.670;2022-08-21T08:47:10;2.67;;;1.67;;
73693;SDS011;61997;53.974;11.670;2022-08-21T08:52:33;2.95;;;1.58;;
73693;SDS011;61997;53.974;11.670;2022-08-21T08:55:07;3.50;;;1.38;;
73693;SDS011;61997;53.974;11.670;2022-08-21T08:57:54;3.15;;;1.50;;
73693;SDS011;61997;53.974;11.670;2022-08-21T09:00:20;2.28;;;1.35;;
73693;SDS011;61997;53.974;11.670;2022-08-21T09:02:47;2.10;;;1.23;;
73693;SDS011;61997;53.974;11.670;2022-08-21T09:05:19;1.70;;;1.35;;
73693;SDS011;61997;53.974;11.670;2022-08-21T09:07:57;2.22;;;1.80;;
73693;SDS011;61997;53.974;11.670;2022-08-21T09:10:48;3.15;;;1.63;;
73693;SDS011;61997;53.974;11.670;2022-08-21T09:16:31;3.38;;;1.38;;
73693;SDS011;61997;53.974;11.670;2022-08-21T09:24:23;2.22;;;1.30;;
73693;SDS011;61997;53.974;11.670;2022-08-21T09:29:37;2.83;;;1.42;;
73693;SDS011;61997;53.974;11.670;2022-08-21T09:32:08;2.58;;;1.60;;
73693;SDS011;61997;53.974;11.670;2022-08-21T09:34:40;2.30;;;1.58;;
73693;SDS011;61997;53.974;11.670;2022-08-21T09:37:14;2.13;;;1.40;;
73693;SDS011;61997;53.974;11.670;2022-08-21T09:39:42;2.17;;;1.55;;
73693;SDS011;61997;53.974;11.670;2022-08-21T09:42:09;2.38;;;1.48;;
73693;SDS011;61997;53.974;11.670;2022-08-21T09:44:39;2.20;;;1.52;;
73693;SDS011;61997;53.974;11.670;2022-08-21T09:47:09;2.50;;;1.60;;
73693;SDS011;61997;53.974;11.670;2022-08-21T09:49:39;2.50;;;1.70;;
73693;SDS011;61997;53.974;11.670;2022-08-21T09:52:19;4.07;;;2.33;;
73693;SDS011;61997;53.974;11.670;2022-08-21T09:54:48;4.93;;;3.00;;
73693;SDS011;61997;53.974;11.670;2022-08-21T09:57:26;3.97;;;2.35;;
73693;SDS011;61997;53.974;11.670;2022-08-21T10:00:09;3.78;;;2.70;;
73693;SDS011;61997;53.974;11.670;2022-08-21T10:02:44;4.55;;;2.60;;
73693;SDS011;61997;53.974;11.670;2022-08-21T10:07:43;5.05;;;2.33;;
73693;SDS011;61997;53.974;11.670;2022-08-21T10:10:19;4.35;;;2.67;;
73693;SDS011;61997;53.974;11.670;2022-08-21T10:13:04;4.60;;;2.63;;
73693;SDS011;61997;53.974;11.670;2022-08-21T10:15:50;4.43;;;2.72;;
73693;SDS011;61997;53.974;11.670;2022-08-21T10:20:49;4.22;;;2.85;;
73693;SDS011;61997;53.974;11.670;2022-08-21T10:25:50;4.65;;;2.60;;
73693;SDS011;61997;53.974;11.670;2022-08-21T10:28:21;4.75;;;2.50;;
73693;SDS011;61997;53.974;11.670;2022-08-21T10:39:44;4.05;;;2.60;;
73693;SDS011;61997;53.974;11.670;2022-08-21T10:53:19;3.65;;;2.65;;
73693;SDS011;61997;53.974;11.670;2022-08-21T10:55:55;5.68;;;3.60;;
73693;SDS011;61997;53.974;11.670;2022-08-21T10:58:29;3.33;;;2.78;;
73693;SDS011;61997;53.974;11.670;2022-08-21T11:00:58;3.95;;;2.83;;
73693;SDS011;61997;53.974;11.670;2022-08-21T11:03:38;3.80;;;2.50;;
73693;SDS011;61997;53.974;11.670;2022-08-21T11:06:11;4.00;;;3.13;;
73693;SDS011;61997;53.974;11.670;2022-08-21T11:08:50;3.47;;;2.25;;
73693;SDS011;61997;53.974;11.670;2022-08-21T11:11:24;4.25;;;2.65;;
73693;SDS011;61997;53.974;11.670;2022-08-21T11:13:53;3.78;;;2.40;;
73693;SDS011;61997;53.974;11.670;2022-08-21T11:16:37;4.88;;;2.88;;
73693;SDS011;61997;53.974;11.670;2022-08-21T11:19:19;3.75;;;2.50;;
73693;SDS011;61997;53.974;11.670;2022-08-21T11:24:24;4.05;;;2.55;;
73693;SDS011;61997;53.974;11.670;2022-08-21T11:29:44;4.18;;;3.13;;
73693;SDS011;61997;53.974;11.670;2022-08-21T11:35:07;4.50;;;2.70;;
73693;SDS011;61997;53.974;11.670;2022-08-21T11:37:45;3.95;;;2.65;;
73693;SDS011;61997;53.974;11.670;2022-08-21T11:45:56;3.33;;;2.33;;
73693;SDS011;61997;53.974;11.670;2022-08-21T11:50:55;4.15;;;2.65;;
73693;SDS011;61997;53.974;11.670;2022-08-21T11:53:43;4.43;;;3.10;;
73693;SDS011;61997;53.974;11.670;2022-08-21T11:59:30;7.82;;;5.82;;
73693;SDS011;61997;53.974;11.670;2022-08-21T12:02:00;5.00;;;3.95;;
73693;SDS011;61997;53.974;11.670;2022-08-21T12:04:27;6.88;;;4.82;;
73693;SDS011;61997;53.974;11.670;2022-08-21T12:06:55;5.57;;;3.90;;
73693;SDS011;61997;53.974;11.670;2022-08-21T12:11:50;9.40;;;4.60;;
73693;SDS011;61997;53.974;11.670;2022-08-21T12:14:24;6.07;;;4.45;;
73693;SDS011;61997;53.974;11.670;2022-08-21T12:17:07;5.53;;;3.60;;
73693;SDS011;61997;53.974;11.670;2022-08-21T12:19:34;5.07;;;3.58;;
73693;SDS011;61997;53.974;11.670;2022-08-21T12:26:58;5.30;;;3.92;;
73693;SDS011;61997;53.974;11.670;2022-08-21T12:29:52;5.93;;;4.00;;
73693;SDS011;61997;53.974;11.670;2022-08-21T12:32:31;5.30;;;4.00;;
73693;SDS011;61997;53.974;11.670;2022-08-21T12:35:14;5.70;;;4.00;;
73693;SDS011;61997;53.974;11.670;2022-08-21T12:37:48;6.38;;;3.65;;
73693;SDS011;61997;53.974;11.670;2022-08-21T12:40:25;4.68;;;3.80;;
73693;SDS011;61997;53.974;11.670;2022-08-21T12:42:55;5.00;;;3.90;;
73693;SDS011;61997;53.974;11.670;2022-08-21T12:45:27;6.03;;;3.72;;
73693;SDS011;61997;53.974;11.670;2022-08-21T12:47:56;6.50;;;4.05;;
73693;SDS011;61997;53.974;11.670;2022-08-21T12:50:42;4.78;;;3.47;;
73693;SDS011;61997;53.974;11.670;2022-08-21T12:53:12;5.03;;;3.92;;
73693;SDS011;61997;53.974;11.670;2022-08-21T12:55:45;5.47;;;3.58;;
73693;SDS011;61997;53.974;11.670;2022-08-21T12:58:20;5.47;;;4.60;;
73693;SDS011;61997;53.974;11.670;2022-08-21T13:00:48;5.55;;;3.78;;
73693;SDS011;61997;53.974;11.670;2022-08-21T13:03:18;4.70;;;4.00;;
73693;SDS011;61997;53.974;11.670;2022-08-21T13:05:44;5.97;;;4.22;;
73693;SDS011;61997;53.974;11.670;2022-08-21T13:08:10;4.15;;;3.53;;
73693;SDS011;61997;53.974;11.670;2022-08-21T13:13:05;5.15;;;3.55;;
73693;SDS011;61997;53.974;11.670;2022-08-21T13:15:35;5.03;;;3.60;;
73693;SDS011;61997;53.974;11.670;2022-08-21T13:18:02;5.30;;;3.55;;
73693;SDS011;61997;53.974;11.670;2022-08-21T13:20:30;5.32;;;3.30;;
73693;SDS011;61997;53.974;11.670;2022-08-21T13:22:57;5.22;;;3.47;;
73693;SDS011;61997;53.974;11.670;2022-08-21T13:25:26;5.57;;;3.85;;
73693;SDS011;61997;53.974;11.670;2022-08-21T13:28:07;6.80;;;3.88;;
73693;SDS011;61997;53.974;11.670;2022-08-21T13:31:11;6.15;;;4.28;;
73693;SDS011;61997;53.974;11.670;2022-08-21T13:33:31;6.95;;;4.32;;
73693;SDS011;61997;53.974;11.670;2022-08-21T13:36:02;5.97;;;4.63;;
73693;SDS011;61997;53.974;11.670;2022-08-21T13:38:30;6.82;;;5.18;;
73693;SDS011;61997;53.974;11.670;2022-08-21T13:43:33;5.65;;;4.65;;
73693;SDS011;61997;53.974;11.670;2022-08-21T13:46:00;8.75;;;6.28;;
73693;SDS011;61997;53.974;11.670;2022-08-21T13:48:30;8.35;;;5.68;;
73693;SDS011;61997;53.974;11.670;2022-08-21T13:50:58;8.35;;;6.05;;
73693;SDS011;61997;53.974;11.670;2022-08-21T13:53:44;8.32;;;6.60;;
73693;SDS011;61997;53.974;11.670;2022-08-21T13:56:22;9.00;;;7.45;;
73693;SDS011;61997;53.974;11.670;2022-08-21T13:58:54;10.27;;;8.73;;
73693;SDS011;61997;53.974;11.670;2022-08-21T14:01:22;9.85;;;6.93;;
73693;SDS011;61997;53.974;11.670;2022-08-21T14:03:51;9.50;;;7.22;;
73693;SDS011;61997;53.974;11.670;2022-08-21T14:06:20;10.95;;;8.10;;
73693;SDS011;61997;53.974;11.670;2022-08-21T14:08:48;10.50;;;7.35;;
73693;SDS011;61997;53.974;11.670;2022-08-21T14:11:25;9.10;;;6.93;;
73693;SDS011;61997;53.974;11.670;2022-08-21T14:16:24;10.13;;;7.68;;
73693;SDS011;61997;53.974;11.670;2022-08-21T14:19:07;11.50;;;8.32;;
73693;SDS011;61997;53.974;11.670;2022-08-21T14:21:38;14.35;;;10.07;;
73693;SDS011;61997;53.974;11.670;2022-08-21T14:29:24;11.40;;;8.60;;
73693;SDS011;61997;53.974;11.670;2022-08-21T14:31:55;10.30;;;8.25;;
73693;SDS011;61997;53.974;11.670;2022-08-21T14:34:23;11.13;;;8.55;;
73693;SDS011;61997;53.974;11.670;2022-08-21T14:36:50;10.68;;;8.32;;
73693;SDS011;61997;53.974;11.670;2022-08-21T14:39:16;11.45;;;8.80;;
73693;SDS011;61997;53.974;11.670;2022-08-21T14:41:42;11.95;;;9.50;;
73693;SDS011;61997;53.974;11.670;2022-08-21T14:44:07;11.35;;;9.02;;
73693;SDS011;61997;53.974;11.670;2022-08-21T14:46:34;11.73;;;8.98;;
73693;SDS011;61997;53.974;11.670;2022-08-21T14:49:00;14.48;;;9.98;;
73693;SDS011;61997;53.974;11.670;2022-08-21T14:51:27;13.35;;;9.32;;
73693;SDS011;61997;53.974;11.670;2022-08-21T14:53:52;12.52;;;8.88;;
73693;SDS011;61997;53.974;11.670;2022-08-21T14:56:18;12.48;;;9.05;;
73693;SDS011;61997;53.974;11.670;2022-08-21T14:58:44;11.55;;;8.20;;
73693;SDS011;61997;53.974;11.670;2022-08-21T15:01:13;11.68;;;8.18;;
73693;SDS011;61997;53.974;11.670;2022-08-21T15:03:40;12.32;;;9.07;;
73693;SDS011;61997;53.974;11.670;2022-08-21T15:06:06;10.63;;;8.07;;
73693;SDS011;61997;53.974;11.670;2022-08-21T15:08:32;11.18;;;9.00;;
73693;SDS011;61997;53.974;11.670;2022-08-21T15:10:58;10.57;;;8.60;;
73693;SDS011;61997;53.974;11.670;2022-08-21T15:13:24;10.80;;;8.00;;
73693;SDS011;61997;53.974;11.670;2022-08-21T15:15:50;10.80;;;7.78;;
73693;SDS011;61997;53.974;11.670;2022-08-21T15:18:21;9.95;;;7.82;;
73693;SDS011;61997;53.974;11.670;2022-08-21T15:20:47;11.25;;;8.57;;
73693;SDS011;61997;53.974;11.670;2022-08-21T15:23:13;10.02;;;7.60;;
73693;SDS011;61997;53.974;11.670;2022-08-21T15:25:40;11.57;;;8.13;;
73693;SDS011;61997;53.974;11.670;2022-08-21T15:28:09;12.38;;;8.27;;
73693;SDS011;61997;53.974;11.670;2022-08-21T15:30:35;10.68;;;8.63;;
73693;SDS011;61997;53.974;11.670;2022-08-21T15:33:01;12.25;;;9.20;;
73693;SDS011;61997;53.974;11.670;2022-08-21T15:35:27;10.27;;;8.52;;
73693;SDS011;61997;53.974;11.670;2022-08-21T15:37:52;10.23;;;7.93;;
73693;SDS011;61997;53.974;11.670;2022-08-21T15:40:18;10.45;;;7.75;;
73693;SDS011;61997;53.974;11.670;2022-08-21T15:42:43;10.75;;;8.48;;
73693;SDS011;61997;53.974;11.670;2022-08-21T15:45:10;10.13;;;7.90;;
73693;SDS011;61997;53.974;11.670;2022-08-21T15:47:36;8.73;;;7.25;;
73693;SDS011;61997;53.974;11.670;2022-08-21T15:50:03;10.73;;;7.65;;
73693;SDS011;61997;53.974;11.670;2022-08-21T15:52:30;10.27;;;7.30;;
73693;SDS011;61997;53.974;11.670;2022-08-21T15:54:55;11.00;;;8.38;;
73693;SDS011;61997;53.974;11.670;2022-08-21T15:57:21;11.75;;;7.38;;
73693;SDS011;61997;53.974;11.670;2022-08-21T15:59:49;9.90;;;8.32;;
73693;SDS011;61997;53.974;11.670;2022-08-21T16:02:17;9.93;;;7.50;;
73693;SDS011;61997;53.974;11.670;2022-08-21T16:04:47;9.05;;;7.75;;
73693;SDS011;61997;53.974;11.670;2022-08-21T16:07:13;11.18;;;7.65;;
73693;SDS011;61997;53.974;11.670;2022-08-21T16:09:38;9.77;;;7.22;;